Terminal Aerodrome Forecast
Issued by NWS Billings, MT

Home | Current Version | Previous Version | Text Only | Print | Product List | Glossary On
Versions: 1 2 3 4 5 6 7 8 9 10 11 12 13 14 15 16 17 18 19 20 21 22 23 24 25 26 27 28 29 30 31 32
000
FTUS45 KBYZ 222329
TAFSHR
TAF
KSHR 222329Z 2300/2324 31024G34KT P6SM VCSH SCT025 OVC045
     FM230200 31020G30KT P6SM VCSH OVC025
     FM231400 31012KT P6SM SCT025 BKN080
     FM232200 VRB05KT P6SM SCT200=

USA.gov is the U.S. government's official web portal to all federal, state and local government web resources and services.